KHOT/HOT METAR and TAF weather

Enter ICAO airport designator
Station Type Date Time Source
KHOT METAR 2022/01/26 20:53 UTC NOAA

KHOT 262053Z AUTO 10SM CLR 06/M15 A3035 RMK AO2 SLP280 T00561150 56034


Station Type Date Time Source
KHOT Decoded METAR 2022/01/26 20:53 UTC NOAA

HOT SPRINGS MEMORIAL FIELD, AR, United States (KHOT) 34-29N 093-06W 162M
Jan 26, 2022 - 03:53 PM EST / 2022.01.26 2053 UTC
Visibility: 10 mile(s):0
Sky conditions: clear
Temperature: 42.1 F (5.6 C)
Dew Point: 5.0 F (-15.0 C)
Relative Humidity: 21%
Pressure (altimeter): 30.35 in. Hg (1027 hPa)
Pressure tendency: 0.10 inches (3.4 hPa) lower than three hours ago
ob: KHOT 262053Z AUTO 10SM CLR 06/M15 A3035 RMK AO2 SLP280 T00561150 56034
cycle: 21

Station Type Date Time Source
KHOT TAF 2022/01/26 18:22 UTC NOAA

TAF KHOT 261720Z 2618/2718 08007KT P6SM SCT100 SCT250
FM270600 VRB03KT P6SM OVC100
FM271500 25003KT P6SM OVC080

Example: see airport list